createdAt,value
2019-02-20T00:00:15.820Z,0.00
2019-02-20T00:01:15.793Z,0.00
2019-02-20T00:02:15.784Z,0.00
2019-02-20T00:03:15.765Z,0.00
2019-02-20T00:04:15.798Z,0.00
2019-02-20T00:05:15.747Z,0.00
2019-02-20T00:06:15.734Z,0.00
2019-02-20T00:07:15.724Z,0.00
2019-02-20T00:08:15.767Z,0.00
2019-02-20T00:09:15.699Z,0.00
2019-02-20T00:10:15.688Z,0.00
2019-02-20T00:11:15.688Z,0.00
2019-02-20T00:12:15.665Z,0.00
2019-02-20T00:13:15.704Z,0.00
2019-02-20T00:14:15.687Z,0.00
2019-02-20T00:15:15.634Z,0.00
2019-02-20T00:16:15.662Z,0.00
2019-02-20T00:17:15.654Z,0.00
2019-02-20T00:18:15.600Z,0.00
2019-02-20T00:19:15.591Z,0.00
2019-02-20T00:20:15.576Z,0.00
2019-02-20T00:21:15.567Z,0.00
2019-02-20T00:22:15.557Z,0.00
2019-02-20T00:23:15.613Z,0.00
2019-02-20T00:24:15.538Z,0.00
2019-02-20T00:25:15.527Z,0.00
2019-02-20T00:26:15.510Z,0.00
2019-02-20T00:27:15.503Z,0.00
2019-02-20T00:28:15.532Z,0.00
2019-02-20T00:29:15.477Z,0.00
2019-02-20T00:30:15.482Z,0.00
2019-02-20T00:31:15.457Z,0.00
2019-02-20T00:32:15.445Z,0.00
2019-02-20T00:33:15.440Z,0.00
2019-02-20T00:34:15.485Z,0.00
2019-02-20T00:35:15.424Z,0.00
2019-02-20T00:36:15.405Z,0.00
2019-02-20T00:37:15.399Z,0.00
2019-02-20T00:38:15.422Z,0.00
2019-02-20T00:39:15.404Z,0.00
2019-02-20T00:40:15.401Z,0.00
2019-02-20T00:41:15.348Z,0.00
2019-02-20T00:42:15.335Z,0.00
2019-02-20T00:43:15.326Z,0.00
2019-02-20T00:44:15.355Z,0.00
2019-02-20T00:45:15.307Z,0.00
2019-02-20T00:46:15.294Z,0.00
2019-02-20T00:47:15.281Z,0.00
2019-02-20T00:48:15.339Z,0.00
2019-02-20T00:49:15.258Z,0.00
2019-02-20T00:50:15.247Z,0.00
2019-02-20T00:51:15.239Z,0.00
2019-02-20T00:52:15.226Z,0.00
2019-02-20T00:53:15.214Z,0.00
2019-02-20T00:54:15.243Z,0.00
2019-02-20T00:55:15.195Z,0.00
2019-02-20T00:56:15.181Z,0.00
2019-02-20T00:57:15.209Z,0.00
2019-02-20T00:58:15.156Z,0.00
2019-02-20T00:59:16.870Z,0.00
2019-02-20T01:00:15.134Z,0.00
2019-02-20T01:01:15.124Z,0.00
2019-02-20T01:02:15.117Z,0.00
2019-02-20T01:03:15.149Z,0.00
2019-02-20T01:04:15.093Z,0.00
2019-02-20T01:05:15.088Z,0.00
2019-02-20T01:06:15.069Z,0.00
2019-02-20T01:07:15.062Z,0.00
2019-02-20T01:08:15.124Z,0.00
2019-02-20T01:09:15.036Z,0.00
2019-02-20T01:10:15.027Z,0.00
2019-02-20T01:11:15.031Z,0.00
2019-02-20T01:12:15.002Z,0.00
2019-02-20T01:13:14.995Z,0.00
2019-02-20T01:14:15.021Z,0.00
2019-02-20T01:15:14.978Z,0.00
2019-02-20T01:16:14.970Z,0.00
2019-02-20T01:17:14.992Z,0.00
2019-02-20T01:18:14.948Z,0.00
2019-02-20T01:19:14.938Z,0.00
2019-02-20T01:20:14.940Z,0.00
2019-02-20T01:21:14.906Z,0.00
2019-02-20T01:22:14.936Z,0.00
2019-02-20T01:23:14.880Z,0.00
2019-02-20T01:24:14.873Z,0.00
2019-02-20T01:25:14.871Z,0.00
2019-02-20T01:26:14.848Z,0.00
2019-02-20T01:27:14.838Z,0.00
2019-02-20T01:28:14.868Z,0.00
2019-02-20T01:29:14.816Z,0.00
2019-02-20T01:30:14.808Z,0.00
2019-02-20T01:31:14.794Z,0.00
2019-02-20T01:32:14.787Z,0.00
2019-02-20T01:33:16.554Z,0.00
2019-02-20T01:34:14.815Z,0.00
2019-02-20T01:35:14.753Z,0.00
2019-02-20T01:36:14.742Z,0.00
2019-02-20T01:37:14.727Z,0.00
2019-02-20T01:38:14.718Z,0.00
2019-02-20T01:39:14.704Z,0.00
2019-02-20T01:40:14.737Z,0.00
2019-02-20T01:41:14.691Z,0.00
2019-02-20T01:42:14.672Z,0.00
2019-02-20T01:43:14.705Z,0.00
2019-02-20T01:44:14.656Z,0.00
2019-02-20T01:45:14.638Z,0.00
2019-02-20T01:46:14.633Z,0.00
2019-02-20T01:47:14.634Z,0.00
2019-02-20T01:48:14.610Z,0.00
2019-02-20T01:49:14.636Z,0.00
2019-02-20T01:50:14.592Z,0.00
2019-02-20T01:51:14.571Z,0.00
2019-02-20T01:52:14.565Z,0.00
2019-02-20T01:53:14.552Z,0.00
2019-02-20T01:54:14.582Z,0.00
2019-02-20T01:55:14.527Z,0.00
2019-02-20T01:56:14.518Z,0.00
2019-02-20T01:57:14.561Z,0.00
2019-02-20T01:58:14.495Z,0.00
2019-02-20T01:59:14.499Z,0.00
2019-02-20T02:00:14.472Z,0.00
2019-02-20T02:01:14.462Z,0.00
2019-02-20T02:02:14.450Z,0.00
2019-02-20T02:03:14.483Z,0.00
2019-02-20T02:04:14.475Z,0.00
2019-02-20T02:05:15.795Z,0.00
2019-02-20T02:06:14.448Z,0.00
2019-02-20T02:07:14.401Z,0.00
2019-02-20T02:08:14.387Z,0.00
2019-02-20T02:09:14.382Z,0.00
2019-02-20T02:10:14.363Z,0.00
2019-02-20T02:11:14.376Z,0.00
2019-02-20T02:12:14.383Z,0.00
2019-02-20T02:13:14.331Z,0.00
2019-02-20T02:14:14.317Z,0.00
2019-02-20T02:15:20.579Z,0.00
2019-02-20T02:16:15.294Z,0.00
2019-02-20T02:17:14.285Z,0.00
2019-02-20T02:18:14.317Z,0.00
2019-02-20T02:19:14.265Z,0.00
2019-02-20T02:20:14.251Z,0.00
2019-02-20T02:21:14.241Z,0.00
2019-02-20T02:22:14.270Z,0.00
2019-02-20T02:23:19.902Z,0.00
2019-02-20T02:24:15.250Z,0.00
2019-02-20T02:25:14.196Z,0.00
2019-02-20T02:26:14.186Z,0.00
2019-02-20T02:27:14.221Z,0.00
2019-02-20T02:28:14.161Z,0.00
2019-02-20T02:29:14.197Z,0.00
2019-02-20T02:30:14.142Z,0.00
2019-02-20T02:31:14.136Z,0.00
2019-02-20T02:32:14.119Z,0.00
2019-02-20T02:33:14.112Z,0.00
2019-02-20T02:34:14.096Z,0.00
2019-02-20T02:35:14.131Z,0.00
2019-02-20T02:36:14.082Z,0.00
2019-02-20T02:37:14.063Z,0.00
2019-02-20T02:38:14.053Z,0.00
2019-02-20T02:39:14.090Z,0.00
2019-02-20T02:40:14.061Z,0.00
2019-02-20T02:41:14.023Z,0.00
2019-02-20T02:42:14.016Z,0.00
2019-02-20T02:43:13.997Z,0.00
2019-02-20T02:44:13.988Z,0.00
2019-02-20T02:45:14.015Z,0.00
2019-02-20T02:46:13.987Z,0.00
2019-02-20T02:47:13.952Z,0.00
2019-02-20T02:48:13.942Z,0.00
2019-02-20T02:49:14.035Z,0.00
2019-02-20T02:50:13.936Z,0.00
2019-02-20T02:51:13.913Z,0.00
2019-02-20T02:52:13.940Z,0.00
2019-02-20T02:53:13.885Z,0.00
2019-02-20T02:54:13.898Z,0.00
2019-02-20T02:55:13.868Z,0.00
2019-02-20T02:56:13.861Z,0.00
2019-02-20T02:57:13.843Z,0.00
2019-02-20T02:58:13.887Z,0.00
2019-02-20T02:59:13.844Z,0.00
2019-02-20T03:00:13.839Z,0.00
2019-02-20T03:01:13.804Z,0.00
2019-02-20T03:02:13.787Z,0.00
2019-02-20T03:03:13.778Z,0.00
2019-02-20T03:04:13.813Z,0.00
2019-02-20T03:05:13.756Z,0.00
2019-02-20T03:06:13.750Z,0.00
2019-02-20T03:07:13.735Z,0.00
2019-02-20T03:08:13.724Z,0.00
2019-02-20T03:09:13.715Z,0.00
2019-02-20T03:10:13.776Z,0.00
2019-02-20T03:11:13.691Z,0.00
2019-02-20T03:12:13.679Z,0.00
2019-02-20T03:13:13.670Z,0.00
2019-02-20T03:14:13.699Z,0.00
2019-02-20T03:15:13.670Z,0.00
2019-02-20T03:16:13.636Z,0.00
2019-02-20T03:17:13.622Z,0.00
2019-02-20T03:18:13.620Z,0.00
2019-02-20T03:19:13.601Z,0.00
2019-02-20T03:20:13.636Z,0.00
2019-02-20T03:21:13.580Z,0.00
2019-02-20T03:22:13.571Z,0.00
2019-02-20T03:23:13.561Z,0.00
2019-02-20T03:24:13.558Z,0.00
2019-02-20T03:25:13.533Z,0.00
2019-02-20T03:26:13.570Z,0.00
2019-02-20T03:27:13.512Z,0.00
2019-02-20T03:28:13.547Z,0.00
2019-02-20T03:29:13.488Z,0.00
2019-02-20T03:30:13.482Z,0.00
2019-02-20T03:31:13.520Z,0.00
2019-02-20T03:32:13.460Z,0.00
2019-02-20T03:33:13.447Z,0.00
2019-02-20T03:34:13.485Z,0.00
2019-02-20T03:35:13.430Z,0.00
2019-02-20T03:36:13.412Z,0.00
2019-02-20T03:37:13.406Z,0.00
2019-02-20T03:38:13.451Z,0.00
2019-02-20T03:39:13.381Z,0.00
2019-02-20T03:40:13.368Z,0.00
2019-02-20T03:41:13.363Z,0.00
2019-02-20T03:42:13.393Z,0.00
2019-02-20T03:43:13.338Z,0.00
2019-02-20T03:44:13.322Z,0.00
2019-02-20T03:45:13.318Z,0.00
2019-02-20T03:46:13.301Z,0.00
2019-02-20T03:47:13.336Z,0.00
2019-02-20T03:48:13.281Z,0.00
2019-02-20T03:49:13.270Z,0.00
2019-02-20T03:50:13.300Z,0.00
2019-02-20T03:51:13.250Z,0.00
2019-02-20T03:52:13.247Z,0.00
2019-02-20T03:53:13.226Z,0.00
2019-02-20T03:54:13.223Z,0.00
2019-02-20T03:55:13.214Z,0.00
2019-02-20T03:56:13.231Z,0.00
2019-02-20T03:57:13.192Z,0.00
2019-02-20T03:58:13.194Z,0.00
2019-02-20T03:59:13.164Z,0.00
2019-02-20T04:00:13.159Z,0.00
2019-02-20T04:01:13.208Z,0.00
2019-02-20T04:02:13.125Z,0.00
2019-02-20T04:03:13.116Z,0.00
2019-02-20T04:04:13.108Z,0.00
2019-02-20T04:05:13.095Z,0.00
2019-02-20T04:06:13.084Z,0.00
2019-02-20T04:07:13.126Z,0.00
2019-02-20T04:08:13.108Z,0.00
2019-02-20T04:09:13.051Z,0.00
2019-02-20T04:10:13.045Z,0.00
2019-02-20T04:11:13.030Z,0.00
2019-02-20T04:12:13.042Z,0.00
2019-02-20T04:13:13.055Z,0.00
2019-02-20T04:14:12.999Z,0.00
2019-02-20T04:15:12.998Z,0.00
2019-02-20T04:16:13.016Z,0.00
2019-02-20T04:17:12.963Z,0.00
2019-02-20T04:18:12.953Z,0.00
2019-02-20T04:19:12.944Z,0.00
2019-02-20T04:20:12.932Z,0.00
2019-02-20T04:21:12.923Z,0.00
2019-02-20T04:22:12.954Z,0.00
2019-02-20T04:23:12.905Z,0.00
2019-02-20T04:24:12.890Z,0.00
2019-02-20T04:25:12.920Z,0.00
2019-02-20T04:26:12.866Z,0.00
2019-02-20T04:27:12.856Z,0.00
2019-02-20T04:28:12.848Z,0.00
2019-02-20T04:29:12.832Z,0.00
2019-02-20T04:30:12.822Z,0.00
2019-02-20T04:31:12.854Z,0.00
2019-02-20T04:32:12.806Z,0.00
2019-02-20T04:33:12.792Z,0.00
2019-02-20T04:34:12.776Z,0.00
2019-02-20T04:35:12.770Z,0.00
2019-02-20T04:36:12.802Z,0.00
2019-02-20T04:37:12.764Z,0.00
2019-02-20T04:38:12.750Z,0.00
2019-02-20T04:39:12.855Z,0.00
2019-02-20T04:40:12.907Z,0.00
2019-02-20T04:41:12.710Z,0.00
2019-02-20T04:42:12.693Z,0.00
2019-02-20T04:43:12.680Z,0.00
2019-02-20T04:44:12.673Z,0.00
2019-02-20T04:45:12.657Z,0.00
2019-02-20T04:46:12.717Z,0.00
2019-02-20T04:47:12.643Z,0.00
2019-02-20T04:48:12.674Z,0.00
2019-02-20T04:49:12.613Z,0.00
2019-02-20T04:50:12.608Z,0.00
2019-02-20T04:51:12.598Z,0.00
2019-02-20T04:52:12.675Z,0.00
2019-02-20T04:53:12.573Z,0.00
2019-02-20T04:54:13.740Z,0.00
2019-02-20T04:55:12.553Z,0.00
2019-02-20T04:56:12.548Z,0.00
2019-02-20T04:57:12.530Z,0.00
2019-02-20T04:58:12.569Z,0.00
2019-02-20T04:59:12.507Z,0.00
2019-02-20T05:00:12.492Z,0.00
2019-02-20T05:01:12.487Z,0.00
2019-02-20T05:02:12.471Z,0.00
2019-02-20T05:03:12.462Z,0.00
2019-02-20T05:04:12.491Z,0.00
2019-02-20T05:05:12.453Z,0.00
2019-02-20T05:06:12.438Z,0.00
2019-02-20T05:07:12.424Z,0.00
2019-02-20T05:08:12.418Z,0.00
2019-02-20T05:09:12.444Z,0.00
2019-02-20T05:10:12.428Z,0.00
2019-02-20T05:11:12.382Z,0.00
2019-02-20T05:12:12.402Z,0.00
2019-02-20T05:13:12.351Z,0.00
2019-02-20T05:14:12.342Z,0.00
2019-02-20T05:15:12.389Z,0.00
2019-02-20T05:16:12.318Z,0.00
2019-02-20T05:17:12.351Z,0.00
2019-02-20T05:18:12.299Z,0.00
2019-02-20T05:19:12.295Z,0.00
2019-02-20T05:20:12.304Z,0.00
2019-02-20T05:21:12.315Z,0.00
2019-02-20T05:22:12.252Z,0.00
2019-02-20T05:23:12.262Z,0.00
2019-02-20T05:24:12.240Z,0.00
2019-02-20T05:25:12.224Z,0.00
2019-02-20T05:26:12.208Z,0.00
2019-02-20T05:27:12.240Z,0.00
2019-02-20T05:28:12.197Z,0.00
2019-02-20T05:29:12.218Z,0.00
2019-02-20T05:30:12.169Z,0.00
2019-02-20T05:31:12.209Z,0.00
2019-02-20T05:32:12.142Z,0.00
2019-02-20T05:33:12.132Z,0.00
2019-02-20T05:34:12.128Z,0.00
2019-02-20T05:35:12.108Z,0.00
2019-02-20T05:36:12.101Z,0.00
2019-02-20T05:37:12.132Z,0.00
2019-02-20T05:38:12.077Z,0.00
2019-02-20T05:39:12.068Z,0.00
2019-02-20T05:40:12.067Z,0.00
2019-02-20T05:41:12.046Z,0.00
2019-02-20T05:42:12.032Z,0.00
2019-02-20T05:43:12.060Z,0.00
2019-02-20T05:44:12.053Z,0.00
2019-02-20T05:45:12.002Z,0.00
2019-02-20T05:46:11.991Z,0.00
2019-02-20T05:47:11.982Z,0.00
2019-02-20T05:48:11.969Z,0.00
2019-02-20T05:49:11.955Z,0.00
2019-02-20T05:50:11.982Z,0.00
2019-02-20T05:51:11.932Z,0.00
2019-02-20T05:52:11.921Z,0.00
2019-02-20T05:53:11.958Z,0.00
2019-02-20T05:54:11.940Z,0.00
2019-02-20T05:55:11.936Z,0.00
2019-02-20T05:56:11.876Z,0.00
2019-02-20T05:57:11.865Z,0.00
2019-02-20T05:58:11.901Z,0.00
2019-02-20T05:59:11.893Z,0.00
2019-02-20T06:00:11.876Z,0.00
2019-02-20T06:01:11.831Z,0.00
2019-02-20T06:02:11.828Z,0.00
2019-02-20T06:03:11.820Z,0.00
2019-02-20T06:04:11.793Z,0.00
2019-02-20T06:05:11.826Z,0.00
2019-02-20T06:06:11.772Z,0.00
2019-02-20T06:07:11.809Z,0.00
2019-02-20T06:08:11.795Z,4.00
2019-02-20T06:09:11.933Z,4.00
2019-02-20T06:10:11.735Z,4.00
2019-02-20T06:11:14.773Z,4.00
2019-02-20T06:12:11.741Z,4.00
2019-02-20T06:13:11.694Z,8.00
2019-02-20T06:14:11.685Z,4.00
2019-02-20T06:15:11.721Z,8.00
2019-02-20T06:16:11.668Z,8.00
2019-02-20T06:17:11.659Z,12.00
2019-02-20T06:18:11.682Z,12.00
2019-02-20T06:19:11.627Z,16.00
2019-02-20T06:20:11.627Z,16.00
2019-02-20T06:21:11.655Z,24.00
2019-02-20T06:22:11.604Z,28.00
2019-02-20T06:23:11.715Z,32.00
2019-02-20T06:24:11.586Z,36.00
2019-02-20T06:25:11.666Z,48.00
2019-02-20T06:26:11.596Z,52.00
2019-02-20T06:27:11.545Z,60.00
2019-02-20T06:28:11.537Z,72.00
2019-02-20T06:29:11.517Z,80.00
2019-02-20T06:30:11.566Z,92.00
2019-02-20T06:31:11.542Z,104.00
2019-02-20T06:32:11.504Z,120.00
2019-02-20T06:33:11.487Z,132.00
2019-02-20T06:34:11.858Z,144.00
2019-02-20T06:35:11.453Z,164.00
2019-02-20T06:36:11.447Z,180.00
2019-02-20T06:37:11.429Z,196.00
2019-02-20T06:38:11.778Z,216.00
2019-02-20T06:39:11.430Z,236.00
2019-02-20T06:40:11.443Z,256.00
2019-02-20T06:41:11.403Z,280.00
2019-02-20T06:42:11.377Z,304.00
2019-02-20T06:43:11.359Z,328.00
2019-02-20T06:44:11.397Z,360.00
2019-02-20T06:45:11.437Z,388.00
2019-02-20T06:46:11.395Z,416.00
2019-02-20T06:47:11.401Z,448.00
2019-02-20T06:48:11.315Z,472.00
2019-02-20T06:49:11.339Z,504.00
2019-02-20T06:50:11.294Z,532.00
2019-02-20T06:51:11.274Z,560.00
2019-02-20T06:52:11.310Z,588.00
2019-02-20T06:53:11.266Z,616.00
2019-02-20T06:54:11.251Z,640.00
2019-02-20T06:55:11.253Z,668.00
2019-02-20T06:56:11.224Z,696.00
2019-02-20T06:57:11.205Z,732.00
2019-02-20T06:58:11.278Z,772.00
2019-02-20T06:59:11.259Z,816.00
2019-02-20T07:00:11.228Z,868.00
2019-02-20T07:01:11.190Z,924.00
2019-02-20T07:02:11.159Z,984.00
2019-02-20T07:03:11.160Z,1040.00
2019-02-20T07:04:11.129Z,1108.00
2019-02-20T07:05:11.118Z,1172.00
2019-02-20T07:06:11.200Z,1244.00
2019-02-20T07:07:11.106Z,1316.00
2019-02-20T07:08:11.158Z,1384.00
2019-02-20T07:09:11.111Z,1448.00
2019-02-20T07:10:11.101Z,1508.00
2019-02-20T07:11:11.153Z,1560.00
2019-02-20T07:12:11.156Z,1616.00
2019-02-20T07:13:11.048Z,1672.00
2019-02-20T07:14:11.065Z,1724.00
2019-02-20T07:15:11.099Z,1768.00
2019-02-20T07:16:11.037Z,1812.00
2019-02-20T07:17:11.002Z,1864.00
2019-02-20T07:18:10.986Z,1908.00
2019-02-20T07:19:10.971Z,1956.00
2019-02-20T07:20:11.018Z,2008.00
2019-02-20T07:21:10.948Z,2056.00
2019-02-20T07:22:10.933Z,2100.00
2019-02-20T07:23:10.965Z,2148.00
2019-02-20T07:24:10.933Z,2200.00
2019-02-20T07:25:10.943Z,2252.00
2019-02-20T07:26:10.890Z,2308.00
2019-02-20T07:27:10.885Z,2368.00
2019-02-20T07:28:10.876Z,2428.00
2019-02-20T07:29:10.912Z,2492.00
2019-02-20T07:30:10.842Z,2560.00
2019-02-20T07:31:10.836Z,2624.00
2019-02-20T07:32:10.828Z,2700.00
2019-02-20T07:33:10.819Z,2772.00
2019-02-20T07:34:10.877Z,2844.00
2019-02-20T07:35:10.792Z,2920.00
2019-02-20T07:36:10.787Z,2996.00
2019-02-20T07:37:10.808Z,3060.00
2019-02-20T07:38:10.762Z,3116.00
2019-02-20T07:39:10.748Z,3184.00
2019-02-20T07:40:10.789Z,3248.00
2019-02-20T07:41:10.727Z,3320.00
2019-02-20T07:42:10.719Z,3372.00
2019-02-20T07:43:10.717Z,3428.00
2019-02-20T07:44:10.690Z,3472.00
2019-02-20T07:45:10.712Z,3512.00
2019-02-20T07:46:10.713Z,3544.00
2019-02-20T07:47:10.714Z,3540.00
2019-02-20T07:48:10.654Z,3572.00
2019-02-20T07:49:10.692Z,3608.00
2019-02-20T07:50:10.742Z,3692.00
2019-02-20T07:51:10.658Z,3700.00
2019-02-20T07:52:10.631Z,3708.00
2019-02-20T07:53:10.649Z,3748.00
2019-02-20T07:54:10.777Z,3756.00
2019-02-20T07:55:13.715Z,3760.00
2019-02-20T07:56:10.756Z,3772.00
2019-02-20T07:57:10.558Z,3764.00
2019-02-20T07:58:10.540Z,3760.00
2019-02-20T07:59:10.574Z,3772.00
2019-02-20T08:00:10.596Z,3800.00
2019-02-20T08:01:10.548Z,3812.00
2019-02-20T08:02:10.499Z,3820.00
2019-02-20T08:03:10.519Z,3828.00
2019-02-20T08:04:10.563Z,3852.00
2019-02-20T08:05:10.477Z,3872.00
2019-02-20T08:06:10.526Z,3900.00
2019-02-20T08:07:10.443Z,3912.00
2019-02-20T08:08:10.447Z,3944.00
2019-02-20T08:09:10.437Z,3964.00
2019-02-20T08:10:10.421Z,3964.00
2019-02-20T08:11:14.620Z,3936.00
2019-02-20T08:12:10.457Z,3916.00
2019-02-20T08:13:10.421Z,3900.00
2019-02-20T08:14:10.506Z,3888.00
2019-02-20T08:15:10.973Z,3860.00
2019-02-20T08:16:10.375Z,3832.00
2019-02-20T08:17:10.328Z,3884.00
2019-02-20T08:18:10.515Z,3932.00
2019-02-20T08:19:10.369Z,3992.00
2019-02-20T08:20:10.302Z,4032.00
2019-02-20T08:21:10.288Z,4100.00
2019-02-20T08:22:10.293Z,4168.00
2019-02-20T08:23:10.275Z,4244.00
2019-02-20T08:24:10.362Z,4312.00
2019-02-20T08:25:10.256Z,4420.00
2019-02-20T08:26:10.253Z,4516.00
2019-02-20T08:27:10.252Z,4576.00
2019-02-20T08:28:10.347Z,4644.00
2019-02-20T08:29:10.245Z,4716.00
2019-02-20T08:30:10.257Z,4764.00
2019-02-20T08:31:10.182Z,4804.00
2019-02-20T08:32:10.218Z,4812.00
2019-02-20T08:33:10.206Z,4812.00
2019-02-20T08:34:10.181Z,4816.00
2019-02-20T08:35:10.144Z,4840.00
2019-02-20T08:36:10.379Z,4800.00
2019-02-20T08:37:10.160Z,4720.00
2019-02-20T08:38:10.103Z,4660.00
2019-02-20T08:39:11.195Z,4668.00
2019-02-20T08:40:10.089Z,4648.00
2019-02-20T08:41:10.066Z,4632.00
2019-02-20T08:42:10.094Z,4640.00
2019-02-20T08:43:10.053Z,4644.00
2019-02-20T08:44:10.036Z,4604.00
2019-02-20T08:45:10.094Z,4552.00
2019-02-20T08:46:10.027Z,4516.00
2019-02-20T08:47:10.663Z,4456.00
2019-02-20T08:48:10.127Z,4420.00
2019-02-20T08:49:09.997Z,4356.00
2019-02-20T08:50:10.117Z,4316.00
2019-02-20T08:51:10.118Z,4372.00
2019-02-20T08:52:10.007Z,4496.00
2019-02-20T08:53:09.959Z,4688.00
2019-02-20T08:54:10.360Z,4752.00
2019-02-20T08:55:10.000Z,4852.00
2019-02-20T08:56:10.393Z,4948.00
2019-02-20T08:57:10.097Z,5032.00
2019-02-20T08:58:09.964Z,5112.00
2019-02-20T08:59:14.990Z,5172.00
2019-02-20T09:00:09.878Z,5224.00
2019-02-20T09:01:09.858Z,5264.00
2019-02-20T09:02:09.864Z,5296.00
2019-02-20T09:03:09.865Z,5340.00
2019-02-20T09:04:09.929Z,5372.00
2019-02-20T09:05:09.861Z,5396.00
2019-02-20T09:06:09.819Z,5444.00
2019-02-20T09:07:09.786Z,5484.00
2019-02-20T09:08:09.790Z,5528.00
2019-02-20T09:09:09.768Z,5612.00
2019-02-20T09:10:09.767Z,5684.00
2019-02-20T09:11:09.814Z,5800.00
2019-02-20T09:12:09.730Z,5920.00
2019-02-20T09:13:09.718Z,6000.00
2019-02-20T09:14:10.226Z,6092.00
2019-02-20T09:15:09.706Z,6116.00
2019-02-20T09:16:09.757Z,6144.00
2019-02-20T09:17:09.688Z,6120.00
2019-02-20T09:18:09.964Z,6192.00
2019-02-20T09:19:09.687Z,6212.00
2019-02-20T09:20:09.679Z,6148.00
2019-02-20T09:21:09.645Z,6092.00
2019-02-20T09:22:09.702Z,6060.00
2019-02-20T09:23:09.657Z,5988.00
2019-02-20T09:24:09.810Z,5972.00
2019-02-20T09:25:09.590Z,6004.00
2019-02-20T09:26:09.615Z,6084.00
2019-02-20T09:27:09.567Z,5972.00
2019-02-20T09:28:09.569Z,5992.00
2019-02-20T09:29:09.595Z,5924.00
2019-02-20T09:30:09.530Z,5944.00
2019-02-20T09:31:09.516Z,6008.00
2019-02-20T09:32:09.555Z,6092.00
2019-02-20T09:33:09.780Z,6168.00
2019-02-20T09:34:09.491Z,6200.00
2019-02-20T09:35:09.490Z,6248.00
2019-02-20T09:36:09.542Z,6244.00
2019-02-20T09:37:09.507Z,6228.00
2019-02-20T09:38:10.518Z,6276.00
2019-02-20T09:39:09.853Z,6220.00
2019-02-20T09:40:09.497Z,6256.00
2019-02-20T09:41:09.476Z,6244.00
2019-02-20T09:42:09.393Z,6196.00
2019-02-20T09:43:09.385Z,6140.00
2019-02-20T09:44:09.421Z,6160.00
2019-02-20T09:45:09.444Z,6156.00
2019-02-20T09:46:09.354Z,6160.00
2019-02-20T09:47:09.375Z,6148.00
2019-02-20T09:48:09.434Z,6168.00
2019-02-20T09:49:09.342Z,6008.00
2019-02-20T09:50:09.369Z,5848.00
2019-02-20T09:51:09.386Z,5884.00
2019-02-20T09:52:09.312Z,5972.00
2019-02-20T09:53:09.310Z,6188.00
2019-02-20T09:54:09.265Z,6256.00
2019-02-20T09:55:09.297Z,6264.00
2019-02-20T09:56:09.242Z,6288.00
2019-02-20T09:57:09.307Z,6160.00
2019-02-20T09:58:09.367Z,6212.00
2019-02-20T09:59:09.215Z,6204.00
2019-02-20T10:00:09.358Z,6320.00
2019-02-20T10:01:09.354Z,6504.00
2019-02-20T10:02:09.210Z,6692.00
2019-02-20T10:03:09.248Z,6928.00
2019-02-20T10:04:09.275Z,6848.00
2019-02-20T10:05:09.316Z,6952.00
2019-02-20T10:06:09.155Z,6840.00
2019-02-20T10:07:09.783Z,7004.00
2019-02-20T10:08:09.545Z,7100.00
2019-02-20T10:09:09.956Z,7116.00
2019-02-20T10:10:09.174Z,7080.00
2019-02-20T10:11:09.124Z,7024.00
2019-02-20T10:12:09.100Z,6860.00
2019-02-20T10:13:11.437Z,6820.00
2019-02-20T10:14:09.033Z,6716.00
2019-02-20T10:15:09.067Z,6588.00
2019-02-20T10:16:09.023Z,6304.00
2019-02-20T10:17:09.090Z,6080.00
2019-02-20T10:18:09.004Z,6024.00
2019-02-20T10:19:09.180Z,6368.00
2019-02-20T10:20:08.973Z,6088.00
2019-02-20T10:21:09.021Z,6000.00
2019-02-20T10:22:08.958Z,6232.00
2019-02-20T10:23:09.050Z,6200.00
2019-02-20T10:24:08.974Z,6232.00
2019-02-20T10:25:09.331Z,6056.00
2019-02-20T10:26:08.990Z,5964.00
2019-02-20T10:27:08.894Z,5664.00
2019-02-20T10:28:08.948Z,5620.00
2019-02-20T10:29:08.885Z,5480.00
2019-02-20T10:30:08.930Z,5560.00
2019-02-20T10:31:08.888Z,5404.00
2019-02-20T10:32:08.843Z,5428.00
2019-02-20T10:33:08.815Z,5596.00
2019-02-20T10:34:08.882Z,5676.00
2019-02-20T10:35:08.814Z,5856.00
2019-02-20T10:36:08.836Z,6016.00
2019-02-20T10:37:08.781Z,6296.00
2019-02-20T10:38:08.770Z,6516.00
2019-02-20T10:39:08.744Z,6584.00
2019-02-20T10:40:08.774Z,6772.00
2019-02-20T10:41:08.748Z,6756.00
2019-02-20T10:42:08.862Z,6688.00
2019-02-20T10:43:08.750Z,6684.00
2019-02-20T10:44:08.757Z,6892.00
2019-02-20T10:45:08.733Z,7044.00
2019-02-20T10:46:09.166Z,7204.00
2019-02-20T10:47:08.778Z,7408.00
2019-02-20T10:48:09.399Z,7476.00
2019-02-20T10:49:09.165Z,7632.00
2019-02-20T10:50:09.138Z,7708.00
2019-02-20T10:51:08.988Z,7756.00
2019-02-20T10:52:08.714Z,7672.00
2019-02-20T10:53:08.600Z,7908.00
2019-02-20T10:54:08.577Z,8244.00
2019-02-20T10:55:08.562Z,8384.00
2019-02-20T10:56:09.665Z,8504.00
2019-02-20T10:57:08.545Z,8924.00
2019-02-20T10:58:08.531Z,9100.00
2019-02-20T10:59:08.527Z,9132.00
2019-02-20T11:00:08.525Z,9120.00
2019-02-20T11:01:08.641Z,9160.00
2019-02-20T11:02:08.907Z,9156.00
2019-02-20T11:03:08.502Z,9108.00
2019-02-20T11:04:08.566Z,9124.00
2019-02-20T11:05:08.448Z,9068.00
2019-02-20T11:06:08.452Z,9076.00
2019-02-20T11:07:08.473Z,9068.00
2019-02-20T11:08:08.423Z,8872.00
2019-02-20T11:09:08.421Z,8620.00
2019-02-20T11:10:08.396Z,8452.00
2019-02-20T11:11:08.420Z,8484.00
2019-02-20T11:12:08.435Z,8556.00
2019-02-20T11:13:08.430Z,8644.00
2019-02-20T11:14:08.356Z,8508.00
2019-02-20T11:15:08.354Z,8292.00
2019-02-20T11:16:08.358Z,8220.00
2019-02-20T11:17:08.313Z,8292.00
2019-02-20T11:18:08.318Z,8392.00
2019-02-20T11:19:08.551Z,8544.00
2019-02-20T11:20:08.553Z,8728.00
2019-02-20T11:21:08.911Z,8896.00
2019-02-20T11:22:09.365Z,8784.00
2019-02-20T11:23:08.290Z,8800.00
2019-02-20T11:24:08.237Z,8904.00
2019-02-20T11:25:08.297Z,9052.00
2019-02-20T11:26:08.217Z,9096.00
2019-02-20T11:27:08.272Z,9036.00
2019-02-20T11:28:08.259Z,8904.00
2019-02-20T11:29:08.191Z,8700.00
2019-02-20T11:30:08.183Z,8740.00
2019-02-20T11:31:08.215Z,8972.00
2019-02-20T11:32:08.154Z,8932.00
2019-02-20T11:33:08.155Z,8840.00
2019-02-20T11:34:08.260Z,9076.00
2019-02-20T11:35:08.122Z,9244.00
2019-02-20T11:36:08.162Z,9448.00
2019-02-20T11:37:08.157Z,9628.00
2019-02-20T11:38:08.115Z,9864.00
2019-02-20T11:39:08.092Z,10084.00
2019-02-20T11:40:08.080Z,10240.00
2019-02-20T11:41:08.051Z,10212.00
2019-02-20T11:42:08.060Z,9984.00
2019-02-20T11:43:08.217Z,9800.00
2019-02-20T11:44:08.013Z,9672.00
2019-02-20T11:45:07.998Z,9500.00
2019-02-20T11:46:08.011Z,9488.00
2019-02-20T11:47:08.005Z,9460.00
2019-02-20T11:48:07.981Z,9324.00
2019-02-20T11:49:08.038Z,9264.00
2019-02-20T11:50:07.999Z,9196.00
2019-02-20T11:51:07.960Z,9080.00
2019-02-20T11:52:07.958Z,9124.00
2019-02-20T11:53:07.947Z,9156.00
2019-02-20T11:54:07.933Z,9156.00
2019-02-20T11:55:07.934Z,9052.00
2019-02-20T11:56:07.925Z,8812.00
2019-02-20T11:57:07.868Z,8644.00
2019-02-20T11:58:07.862Z,8484.00
2019-02-20T11:59:07.927Z,8424.00
2019-02-20T12:00:07.830Z,8328.00
2019-02-20T12:01:07.836Z,8220.00
2019-02-20T12:02:07.828Z,7992.00
2019-02-20T12:03:07.849Z,7736.00
2019-02-20T12:04:07.795Z,7720.00
2019-02-20T12:05:07.783Z,7704.00
2019-02-20T12:06:07.797Z,7752.00
2019-02-20T12:07:07.766Z,7376.00
2019-02-20T12:08:07.748Z,7008.00
2019-02-20T12:09:07.781Z,6792.00
2019-02-20T12:10:07.722Z,6736.00
2019-02-20T12:11:07.714Z,6728.00
2019-02-20T12:12:09.403Z,6848.00
2019-02-20T12:13:07.687Z,7028.00
2019-02-20T12:14:07.728Z,7476.00
2019-02-20T12:15:07.664Z,7684.00
2019-02-20T12:16:07.659Z,7936.00
2019-02-20T12:17:07.644Z,8212.00
2019-02-20T12:18:07.633Z,8468.00
2019-02-20T12:19:07.615Z,8744.00
2019-02-20T12:20:07.662Z,8876.00
2019-02-20T12:21:07.625Z,8596.00
2019-02-20T12:22:07.586Z,8532.00
2019-02-20T12:23:07.580Z,8704.00
2019-02-20T12:24:07.588Z,8920.00
2019-02-20T12:25:07.568Z,8644.00
2019-02-20T12:26:07.602Z,8892.00
2019-02-20T12:27:07.538Z,8668.00
2019-02-20T12:28:07.568Z,8084.00
2019-02-20T12:29:07.510Z,8068.00
2019-02-20T12:30:07.499Z,7936.00
2019-02-20T12:31:07.491Z,8092.00
2019-02-20T12:32:07.491Z,7860.00
2019-02-20T12:33:07.479Z,8016.00
2019-02-20T12:34:07.560Z,8456.00
2019-02-20T12:35:07.472Z,8572.00
2019-02-20T12:36:07.428Z,8836.00
2019-02-20T12:37:07.427Z,9104.00
2019-02-20T12:38:07.405Z,9260.00
2019-02-20T12:39:07.397Z,9472.00
2019-02-20T12:40:07.432Z,8812.00
2019-02-20T12:41:07.445Z,8776.00